createdAt,value
2018-06-28T00:02:17.669Z,20.48
2018-06-28T00:07:10.678Z,20.42
2018-06-28T00:12:03.737Z,20.37
2018-06-28T00:16:56.832Z,20.32
2018-06-28T00:21:50.103Z,20.26
2018-06-28T00:26:43.281Z,20.19
2018-06-28T00:31:36.336Z,20.11
2018-06-28T00:36:29.396Z,20.05
2018-06-28T00:41:22.423Z,20.01
2018-06-28T00:46:15.640Z,19.94
2018-06-28T00:51:08.634Z,19.86
2018-06-28T00:56:01.724Z,19.79
2018-06-28T01:00:54.715Z,19.72
2018-06-28T01:05:47.782Z,19.68
2018-06-28T01:10:40.788Z,19.61
2018-06-28T01:15:33.831Z,19.55
2018-06-28T01:20:26.864Z,19.50
2018-06-28T01:25:19.805Z,19.45
2018-06-28T01:30:12.861Z,19.37
2018-06-28T01:35:05.880Z,19.30
2018-06-28T01:39:58.913Z,19.22
2018-06-28T01:44:51.966Z,19.17
2018-06-28T01:49:44.994Z,19.12
2018-06-28T01:54:37.970Z,19.08
2018-06-28T01:59:30.952Z,19.02
2018-06-28T02:04:23.943Z,18.95
2018-06-28T02:09:16.935Z,18.91
2018-06-28T02:14:09.949Z,18.87
2018-06-28T02:19:03.030Z,18.82
2018-06-28T02:23:56.105Z,18.77
2018-06-28T02:28:49.091Z,18.73
2018-06-28T02:33:42.240Z,18.69
2018-06-28T02:38:35.365Z,18.65
2018-06-28T02:43:28.321Z,18.60
2018-06-28T02:48:21.367Z,18.57
2018-06-28T02:53:14.477Z,18.54
2018-06-28T02:58:07.435Z,18.52
2018-06-28T03:03:00.459Z,18.49
2018-06-28T03:07:53.443Z,18.44
2018-06-28T03:12:46.470Z,18.41
2018-06-28T03:17:39.492Z,18.41
2018-06-28T03:22:32.450Z,18.40
2018-06-28T03:27:25.479Z,18.38
2018-06-28T03:32:18.495Z,18.37
2018-06-28T03:37:11.490Z,18.34
2018-06-28T03:42:04.564Z,18.33
2018-06-28T03:46:57.494Z,18.33
2018-06-28T03:51:50.480Z,18.30
2018-06-28T03:56:43.567Z,18.28
2018-06-28T04:01:36.610Z,18.27
2018-06-28T04:06:29.746Z,18.28
2018-06-28T04:11:22.688Z,18.29
2018-06-28T04:16:15.740Z,18.28
2018-06-28T04:21:08.759Z,18.29
2018-06-28T04:26:01.779Z,18.29
2018-06-28T04:30:54.900Z,18.27
2018-06-28T04:35:48.137Z,18.29
2018-06-28T04:40:41.205Z,18.29
2018-06-28T04:45:34.201Z,18.30
2018-06-28T04:50:27.312Z,18.33
2018-06-28T04:55:20.340Z,18.35
2018-06-28T05:00:13.307Z,18.39
2018-06-28T05:05:06.356Z,18.43
2018-06-28T05:09:59.381Z,18.44
2018-06-28T05:14:52.429Z,18.48
2018-06-28T05:19:45.452Z,18.54
2018-06-28T05:24:38.524Z,18.57
2018-06-28T05:29:31.523Z,18.65
2018-06-28T05:34:24.490Z,18.73
2018-06-28T05:39:17.466Z,18.84
2018-06-28T05:44:10.564Z,18.92
2018-06-28T05:49:03.705Z,19.02
2018-06-28T05:53:56.738Z,19.08
2018-06-28T05:58:49.779Z,19.15
2018-06-28T06:03:42.969Z,19.21
2018-06-28T06:08:36.081Z,19.29
2018-06-28T06:13:29.091Z,19.39
2018-06-28T06:18:22.080Z,19.46
2018-06-28T06:23:15.102Z,19.57
2018-06-28T06:28:08.100Z,19.68
2018-06-28T06:33:01.065Z,19.80
2018-06-28T06:37:54.065Z,19.91
2018-06-28T06:42:47.109Z,19.99
2018-06-28T06:47:40.145Z,20.11
2018-06-28T06:52:33.143Z,20.18
2018-06-28T06:57:26.131Z,20.29
2018-06-28T07:02:19.145Z,20.40
2018-06-28T07:07:12.185Z,20.56
2018-06-28T07:12:05.342Z,20.70
2018-06-28T07:16:58.579Z,20.84
2018-06-28T07:21:51.934Z,21.02
2018-06-28T07:26:44.887Z,21.32
2018-06-28T07:31:37.907Z,22.27
2018-06-28T07:36:31.032Z,24.09
2018-06-28T07:41:24.252Z,25.72
2018-06-28T07:46:17.252Z,27.03
2018-06-28T07:51:10.280Z,27.98
2018-06-28T07:56:03.591Z,28.66
2018-06-28T08:00:56.604Z,29.08
2018-06-28T08:05:49.665Z,29.26
2018-06-28T08:10:42.751Z,29.37
2018-06-28T08:15:35.770Z,29.36
2018-06-28T08:20:28.793Z,29.50
2018-06-28T08:25:21.843Z,29.52
2018-06-28T08:30:14.906Z,29.51
2018-06-28T08:35:07.889Z,29.06
2018-06-28T08:40:00.988Z,28.61
2018-06-28T08:44:54.010Z,28.30
2018-06-28T08:49:46.988Z,28.17
2018-06-28T08:54:40.000Z,28.17
2018-06-28T08:59:32.990Z,28.05
2018-06-28T09:04:25.967Z,27.94
2018-06-28T09:09:18.962Z,27.86
2018-06-28T09:14:11.948Z,27.82
2018-06-28T09:19:05.040Z,27.72
2018-06-28T09:23:58.103Z,27.68
2018-06-28T09:28:51.128Z,27.72
2018-06-28T09:33:44.323Z,27.70
2018-06-28T09:38:37.273Z,27.64
2018-06-28T09:43:30.201Z,27.53
2018-06-28T09:48:23.328Z,27.30
2018-06-28T09:53:16.350Z,27.23
2018-06-28T09:58:09.388Z,27.15
2018-06-28T10:03:02.369Z,27.01
2018-06-28T10:07:55.424Z,27.17
2018-06-28T10:12:48.392Z,27.38
2018-06-28T10:17:41.595Z,27.56
2018-06-28T10:22:34.614Z,27.69
2018-06-28T10:27:27.640Z,27.69
2018-06-28T10:32:20.693Z,27.61
2018-06-28T10:37:13.888Z,27.68
2018-06-28T10:42:07.282Z,27.78
2018-06-28T10:47:00.393Z,27.85
2018-06-28T10:51:53.543Z,27.95
2018-06-28T10:56:46.541Z,28.07
2018-06-28T11:01:39.559Z,28.20
2018-06-28T11:06:32.453Z,28.41
2018-06-28T11:11:25.513Z,28.36
2018-06-28T11:16:18.491Z,28.18
2018-06-28T11:21:11.485Z,28.12
2018-06-28T11:26:04.577Z,28.18
2018-06-28T11:30:57.703Z,28.30
2018-06-28T11:35:50.726Z,28.46
2018-06-28T11:40:43.730Z,28.50
2018-06-28T11:45:36.848Z,28.58
2018-06-28T11:50:30.282Z,28.56
2018-06-28T11:55:23.373Z,28.60
2018-06-28T12:00:16.374Z,28.81
2018-06-28T12:05:09.403Z,28.89
2018-06-28T12:10:02.420Z,29.01
2018-06-28T12:14:55.461Z,29.17
2018-06-28T12:19:48.401Z,29.43
2018-06-28T12:24:41.493Z,29.39
2018-06-28T12:29:34.499Z,29.20
2018-06-28T12:34:27.533Z,29.25
2018-06-28T12:39:20.623Z,29.42
2018-06-28T12:44:13.696Z,29.39
2018-06-28T12:49:06.785Z,29.23
2018-06-28T12:53:59.810Z,29.15
2018-06-28T12:58:53.925Z,29.08
2018-06-28T13:03:47.505Z,29.00
2018-06-28T13:08:40.785Z,28.91
2018-06-28T13:13:33.972Z,28.82
2018-06-28T13:18:26.946Z,28.73
2018-06-28T13:23:19.958Z,28.69
2018-06-28T13:28:12.951Z,28.66
2018-06-28T13:33:06.120Z,28.64
2018-06-28T13:37:59.159Z,28.83
2018-06-28T13:42:52.195Z,29.01
2018-06-28T13:47:45.205Z,28.92
2018-06-28T13:52:38.220Z,28.47
2018-06-28T13:57:31.216Z,28.12
2018-06-28T14:02:24.232Z,27.89
2018-06-28T14:07:17.479Z,27.77
2018-06-28T14:12:10.653Z,27.65
2018-06-28T14:17:03.705Z,27.52
2018-06-28T14:21:56.695Z,27.51
2018-06-28T14:26:49.596Z,27.44
2018-06-28T14:31:42.627Z,27.42
2018-06-28T14:36:35.582Z,27.37
2018-06-28T14:41:28.706Z,27.41
2018-06-28T14:46:21.814Z,27.41
2018-06-28T14:51:14.863Z,27.42
2018-06-28T14:56:07.857Z,27.43
2018-06-28T15:01:00.972Z,27.41
2018-06-28T15:05:54.054Z,27.36
2018-06-28T15:10:47.171Z,27.36
2018-06-28T15:15:40.179Z,27.34
2018-06-28T15:20:33.352Z,27.37
2018-06-28T15:25:26.321Z,27.41
2018-06-28T15:30:19.283Z,27.43
2018-06-28T15:35:12.332Z,27.38
2018-06-28T15:40:05.499Z,27.38
2018-06-28T15:44:58.670Z,27.40
2018-06-28T15:49:51.810Z,27.36
2018-06-28T15:54:44.867Z,27.32
2018-06-28T15:59:37.933Z,27.26
2018-06-28T16:04:31.060Z,27.19
2018-06-28T16:09:24.210Z,27.16
2018-06-28T16:14:17.322Z,27.13
2018-06-28T16:19:10.392Z,27.09
2018-06-28T16:24:03.505Z,27.05
2018-06-28T16:28:56.542Z,27.02
2018-06-28T16:33:49.745Z,26.96
2018-06-28T16:38:42.789Z,26.94
2018-06-28T16:43:35.789Z,26.93
2018-06-28T16:48:31.716Z,26.90
2018-06-28T16:53:24.765Z,26.85
2018-06-28T16:58:17.691Z,26.79
2018-06-28T17:03:13.698Z,26.77
2018-06-28T17:08:06.778Z,26.76
2018-06-28T17:12:59.822Z,26.74
2018-06-28T17:17:52.881Z,26.70
2018-06-28T17:22:46.044Z,26.64
2018-06-28T17:27:39.032Z,26.58
2018-06-28T17:32:32.091Z,26.57
2018-06-28T17:37:25.317Z,26.54
2018-06-28T17:42:18.389Z,26.52
2018-06-28T17:47:11.650Z,26.36
2018-06-28T17:52:04.718Z,25.74
2018-06-28T17:56:57.761Z,25.14
2018-06-28T18:01:50.850Z,24.67
2018-06-28T18:06:43.826Z,24.52
2018-06-28T18:11:37.397Z,24.62
2018-06-28T18:16:30.512Z,24.91
2018-06-28T18:21:23.475Z,25.26
2018-06-28T18:26:16.412Z,25.57
2018-06-28T18:31:09.308Z,25.77
2018-06-28T18:36:02.341Z,25.90
2018-06-28T18:40:55.465Z,25.97
2018-06-28T18:45:48.508Z,25.99
2018-06-28T18:50:41.686Z,25.99
2018-06-28T18:55:34.724Z,25.98
2018-06-28T19:00:27.686Z,25.97
2018-06-28T19:05:20.687Z,25.95
2018-06-28T19:10:19.332Z,25.94
2018-06-28T19:15:17.886Z,25.92
2018-06-28T19:20:10.994Z,25.90
2018-06-28T19:25:04.026Z,25.87
2018-06-28T19:30:02.697Z,25.81
2018-06-28T19:34:55.802Z,25.72
2018-06-28T19:41:56.470Z,25.69
2018-06-28T19:46:49.613Z,25.64
2018-06-28T19:51:48.293Z,25.58
2018-06-28T19:56:41.341Z,25.53
2018-06-28T20:01:40.147Z,25.48
2018-06-28T20:06:33.148Z,25.41
2018-06-28T20:11:26.135Z,25.33
2018-06-28T20:16:25.003Z,25.23
2018-06-28T20:21:17.975Z,25.13
2018-06-28T20:26:16.727Z,25.04
2018-06-28T20:31:15.047Z,24.97
2018-06-28T20:36:08.110Z,24.88
2018-06-28T20:41:01.064Z,24.78
2018-06-28T20:45:54.161Z,24.69
2018-06-28T20:50:47.573Z,24.60
2018-06-28T20:55:40.553Z,24.54
2018-06-28T21:00:33.758Z,24.44
2018-06-28T21:05:26.926Z,24.33
2018-06-28T21:10:19.954Z,24.25
2018-06-28T21:15:13.017Z,24.18
2018-06-28T21:20:06.059Z,24.12
2018-06-28T21:24:59.072Z,23.99
2018-06-28T21:29:52.116Z,23.93
2018-06-28T21:34:45.201Z,23.89
2018-06-28T21:39:38.123Z,23.83
2018-06-28T21:44:31.172Z,23.78
2018-06-28T21:49:24.063Z,23.72
2018-06-28T21:54:17.108Z,23.63
2018-06-28T21:59:10.210Z,23.55
2018-06-28T22:04:03.395Z,23.47
2018-06-28T22:08:56.390Z,23.38
2018-06-28T22:13:49.437Z,23.29
2018-06-28T22:18:42.406Z,23.23
2018-06-28T22:23:35.414Z,23.11
2018-06-28T22:28:29.240Z,23.00
2018-06-28T22:33:22.155Z,22.91
2018-06-28T22:38:15.271Z,22.84
2018-06-28T22:43:08.357Z,22.80
2018-06-28T22:48:01.275Z,22.72
2018-06-28T22:52:54.292Z,22.62
2018-06-28T22:57:47.308Z,22.54
2018-06-28T23:02:40.314Z,22.47
2018-06-28T23:07:33.315Z,22.40
2018-06-28T23:12:26.325Z,22.36
2018-06-28T23:17:19.326Z,22.26
2018-06-28T23:22:46.122Z,22.19
2018-06-28T23:27:39.132Z,22.08
2018-06-28T23:32:32.222Z,22.01
2018-06-28T23:37:25.228Z,21.95
2018-06-28T23:42:18.328Z,21.87
2018-06-28T23:47:11.365Z,21.82
2018-06-28T23:52:04.565Z,21.74
2018-06-28T23:56:57.637Z,21.70
